createdAt,value
2019-03-30T00:00:02.396Z,99.90
2019-03-30T00:02:30.855Z,99.90
2019-03-30T00:04:59.606Z,99.90
2019-03-30T00:07:28.341Z,99.90
2019-03-30T00:09:58.790Z,99.90
2019-03-30T00:12:27.492Z,99.90
2019-03-30T00:14:56.318Z,99.90
2019-03-30T00:17:25.062Z,99.90
2019-03-30T00:19:53.629Z,99.90
2019-03-30T00:22:22.357Z,99.90
2019-03-30T00:24:50.817Z,99.90
2019-03-30T00:27:19.275Z,99.90
2019-03-30T00:29:50.519Z,99.90
2019-03-30T00:32:19.319Z,99.90
2019-03-30T00:34:48.108Z,99.90
2019-03-30T00:37:16.877Z,99.90
2019-03-30T00:39:45.661Z,99.90
2019-03-30T00:42:15.761Z,99.90
2019-03-30T00:44:46.428Z,99.90
2019-03-30T00:47:14.873Z,99.90
2019-03-30T00:49:49.837Z,99.90
2019-03-30T00:52:13.815Z,99.90
2019-03-30T00:54:42.586Z,99.90
2019-03-30T00:57:11.115Z,99.90
2019-03-30T00:59:39.689Z,99.90
2019-03-30T01:02:08.448Z,99.90
2019-03-30T01:04:37.218Z,99.90
2019-03-30T01:07:05.684Z,99.90
2019-03-30T01:09:34.487Z,99.90
2019-03-30T01:12:02.968Z,99.90
2019-03-30T01:14:34.108Z,99.90
2019-03-30T01:17:02.998Z,99.90
2019-03-30T01:19:31.474Z,99.90
2019-03-30T01:22:00.033Z,99.90
2019-03-30T01:24:28.568Z,99.90
2019-03-30T01:26:57.034Z,99.90
2019-03-30T01:29:25.920Z,99.90
2019-03-30T01:31:55.424Z,99.90
2019-03-30T01:34:24.213Z,99.90
2019-03-30T01:36:52.692Z,99.90
2019-03-30T01:39:22.698Z,99.90
2019-03-30T01:41:51.136Z,99.90
2019-03-30T01:44:19.986Z,99.90
2019-03-30T01:46:48.736Z,99.90
2019-03-30T01:49:17.194Z,99.90
2019-03-30T01:51:46.038Z,99.90
2019-03-30T01:54:14.558Z,99.90
2019-03-30T01:56:43.256Z,99.90
2019-03-30T01:59:12.109Z,99.90
2019-03-30T02:01:40.668Z,99.90
2019-03-30T02:04:09.177Z,99.90
2019-03-30T02:06:37.668Z,99.90
2019-03-30T02:09:06.492Z,99.90
2019-03-30T02:11:35.235Z,99.90
2019-03-30T02:14:03.859Z,99.90
2019-03-30T02:16:32.623Z,99.90
2019-03-30T02:19:01.479Z,99.90
2019-03-30T02:21:30.066Z,99.90
2019-03-30T02:24:00.098Z,99.90
2019-03-30T02:26:28.973Z,99.90
2019-03-30T02:28:57.760Z,99.90
2019-03-30T02:31:26.485Z,99.90
2019-03-30T02:33:54.974Z,99.90
2019-03-30T02:36:23.487Z,99.90
2019-03-30T02:38:53.613Z,99.90
2019-03-30T02:41:22.421Z,99.90
2019-03-30T02:43:52.243Z,99.90
2019-03-30T02:46:20.989Z,99.90
2019-03-30T02:48:49.794Z,99.90
2019-03-30T02:51:18.666Z,99.90
2019-03-30T02:53:47.185Z,99.90
2019-03-30T02:56:16.045Z,99.90
2019-03-30T02:58:44.570Z,99.90
2019-03-30T03:01:14.933Z,99.90
2019-03-30T03:03:43.485Z,99.90
2019-03-30T03:06:12.310Z,99.90
2019-03-30T03:08:41.199Z,99.90
2019-03-30T03:11:09.737Z,99.90
2019-03-30T03:13:38.190Z,99.90
2019-03-30T03:16:06.649Z,99.90
2019-03-30T03:18:35.136Z,99.90
2019-03-30T03:21:07.923Z,99.90
2019-03-30T03:23:34.213Z,99.90
2019-03-30T03:26:03.015Z,99.90
2019-03-30T03:28:31.538Z,99.90
2019-03-30T03:31:00.277Z,99.90
2019-03-30T03:33:29.060Z,99.90
2019-03-30T03:35:57.526Z,99.90
2019-03-30T03:38:26.448Z,99.90
2019-03-30T03:40:55.248Z,99.90
2019-03-30T03:43:24.106Z,99.90
2019-03-30T03:45:52.695Z,99.90
2019-03-30T03:48:21.144Z,99.90
2019-03-30T03:50:52.928Z,99.90
2019-03-30T03:53:21.668Z,99.90
2019-03-30T03:55:50.695Z,99.90
2019-03-30T03:58:20.762Z,99.90
2019-03-30T04:00:50.998Z,99.90
2019-03-30T04:03:20.147Z,99.90
2019-03-30T04:05:49.150Z,99.90
2019-03-30T04:08:17.856Z,99.90
2019-03-30T04:10:48.350Z,99.90
2019-03-30T04:13:17.342Z,99.90
2019-03-30T04:15:45.891Z,99.90
2019-03-30T04:18:14.429Z,99.90
2019-03-30T04:20:42.954Z,99.90
2019-03-30T04:23:12.252Z,99.90
2019-03-30T04:25:40.698Z,99.90
2019-03-30T04:28:09.144Z,99.90
2019-03-30T04:30:37.632Z,99.90
2019-03-30T04:33:06.510Z,99.90
2019-03-30T04:35:34.954Z,99.90
2019-03-30T04:38:04.012Z,99.90
2019-03-30T04:40:32.534Z,99.90
2019-03-30T04:43:02.706Z,99.90
2019-03-30T04:45:31.465Z,99.90
2019-03-30T04:48:00.242Z,99.90
2019-03-30T04:50:29.078Z,99.90
2019-03-30T04:52:57.917Z,99.90
2019-03-30T04:55:26.618Z,99.90
2019-03-30T04:57:57.894Z,99.90
2019-03-30T05:00:25.814Z,99.90
2019-03-30T05:02:54.662Z,99.90
2019-03-30T05:05:23.124Z,99.90
2019-03-30T05:07:51.880Z,99.90
2019-03-30T05:10:20.691Z,99.90
2019-03-30T05:12:49.564Z,99.90
2019-03-30T05:15:18.434Z,99.90
2019-03-30T05:17:48.152Z,99.90
2019-03-30T05:20:18.076Z,99.90
2019-03-30T05:22:51.204Z,99.90
2019-03-30T05:25:18.232Z,99.90
2019-03-30T05:27:46.710Z,99.90
2019-03-30T05:30:15.291Z,99.90
2019-03-30T05:32:44.076Z,99.90
2019-03-30T05:35:13.688Z,99.90
2019-03-30T05:37:42.197Z,99.90
2019-03-30T05:40:11.264Z,99.90
2019-03-30T05:42:39.804Z,99.90
2019-03-30T05:45:08.851Z,99.90
2019-03-30T05:47:37.556Z,99.90
2019-03-30T05:50:07.409Z,99.90
2019-03-30T05:52:36.193Z,99.90
2019-03-30T05:55:05.823Z,99.90
2019-03-30T05:57:37.014Z,99.90
2019-03-30T06:00:11.930Z,99.90
2019-03-30T06:02:40.693Z,99.90
2019-03-30T06:05:09.307Z,99.90
2019-03-30T06:07:38.020Z,99.90
2019-03-30T06:10:09.016Z,99.90
2019-03-30T06:12:37.550Z,99.90
2019-03-30T06:15:09.876Z,99.90
2019-03-30T06:17:40.571Z,99.90
2019-03-30T06:20:09.959Z,99.90
2019-03-30T06:22:40.599Z,99.90
2019-03-30T06:25:09.077Z,99.90
2019-03-30T06:27:37.640Z,99.90
2019-03-30T06:30:21.072Z,99.90
2019-03-30T06:32:49.538Z,99.90
2019-03-30T06:35:18.469Z,99.90
2019-03-30T06:37:47.221Z,99.90
2019-03-30T06:40:16.465Z,99.90
2019-03-30T06:42:45.042Z,99.90
2019-03-30T06:45:13.740Z,99.90
2019-03-30T06:47:42.271Z,99.90
2019-03-30T06:50:13.719Z,99.90
2019-03-30T06:52:56.402Z,99.90
2019-03-30T06:55:12.774Z,99.90
2019-03-30T06:57:41.295Z,99.90
2019-03-30T07:00:10.333Z,99.90
2019-03-30T07:02:41.931Z,99.90
2019-03-30T07:05:10.795Z,99.90
2019-03-30T07:07:40.141Z,99.90
2019-03-30T07:10:09.335Z,99.90
2019-03-30T07:12:42.146Z,99.90
2019-03-30T07:15:11.351Z,99.90
2019-03-30T07:17:47.321Z,99.90
2019-03-30T07:20:31.221Z,99.90
2019-03-30T07:23:11.325Z,99.90
2019-03-30T07:25:30.545Z,99.90
2019-03-30T07:27:59.097Z,99.90
2019-03-30T07:30:27.937Z,99.90
2019-03-30T07:32:56.484Z,99.90
2019-03-30T07:35:27.454Z,99.90
2019-03-30T07:37:55.901Z,99.90
2019-03-30T07:40:24.430Z,99.90
2019-03-30T07:42:53.170Z,99.90
2019-03-30T07:45:22.061Z,99.90
2019-03-30T07:47:50.541Z,99.90
2019-03-30T07:50:19.657Z,99.90
2019-03-30T07:52:48.105Z,99.90
2019-03-30T07:55:16.559Z,99.90
2019-03-30T07:57:45.297Z,99.90
2019-03-30T08:00:15.317Z,99.90
2019-03-30T08:02:44.103Z,99.90
2019-03-30T08:05:13.093Z,99.90
2019-03-30T08:07:41.613Z,99.90
2019-03-30T08:10:12.597Z,99.90
2019-03-30T08:12:41.249Z,99.90
2019-03-30T08:15:09.911Z,99.90
2019-03-30T08:17:38.431Z,99.90
2019-03-30T08:20:07.979Z,99.90
2019-03-30T08:22:37.439Z,99.90
2019-03-30T08:25:07.168Z,99.90
2019-03-30T08:27:35.628Z,99.90
2019-03-30T08:30:05.204Z,99.90
2019-03-30T08:32:34.143Z,99.90
2019-03-30T08:35:02.932Z,99.90
2019-03-30T08:37:31.666Z,99.90
2019-03-30T08:40:00.398Z,99.90
2019-03-30T08:42:29.292Z,99.90
2019-03-30T08:44:58.281Z,99.90
2019-03-30T08:47:27.050Z,99.90
2019-03-30T08:49:55.554Z,99.90
2019-03-30T08:52:24.272Z,99.90
2019-03-30T08:54:53.108Z,99.90
2019-03-30T08:57:21.626Z,99.90
2019-03-30T08:59:50.072Z,99.90
2019-03-30T09:02:18.563Z,99.90
2019-03-30T09:04:48.151Z,99.90
2019-03-30T09:07:16.762Z,99.90
2019-03-30T09:09:45.537Z,99.90
2019-03-30T09:12:14.440Z,99.90
2019-03-30T09:14:42.961Z,99.90
2019-03-30T09:17:12.204Z,99.90
2019-03-30T09:19:40.990Z,99.90
2019-03-30T09:22:09.436Z,99.90
2019-03-30T09:24:38.502Z,99.90
2019-03-30T09:27:07.050Z,99.90
2019-03-30T09:29:35.562Z,99.90
2019-03-30T09:32:14.142Z,98.90
2019-03-30T09:34:36.531Z,96.10
2019-03-30T09:37:06.988Z,97.40
2019-03-30T09:39:35.734Z,96.60
2019-03-30T09:42:04.441Z,94.10
2019-03-30T09:44:32.898Z,92.90
2019-03-30T09:47:01.381Z,94.70
2019-03-30T09:49:30.152Z,93.30
2019-03-30T09:51:59.017Z,94.30
2019-03-30T09:54:28.634Z,94.60
2019-03-30T09:56:59.775Z,94.30
2019-03-30T09:59:28.566Z,92.60
2019-03-30T10:01:57.056Z,93.80
2019-03-30T10:04:25.820Z,92.30
2019-03-30T10:06:54.279Z,94.00
2019-03-30T10:09:23.094Z,93.10
2019-03-30T10:11:53.575Z,92.70
2019-03-30T10:14:22.408Z,93.40
2019-03-30T10:16:51.190Z,92.40
2019-03-30T10:19:19.742Z,94.00
2019-03-30T10:21:48.198Z,91.20
2019-03-30T10:24:16.955Z,91.40
2019-03-30T10:26:45.504Z,92.30
2019-03-30T10:29:13.962Z,93.90
2019-03-30T10:31:42.804Z,90.50
2019-03-30T10:34:11.362Z,89.30
2019-03-30T10:36:40.072Z,90.10
2019-03-30T10:39:08.884Z,90.70
2019-03-30T10:41:37.616Z,88.40
2019-03-30T10:44:06.068Z,88.70
2019-03-30T10:46:34.864Z,91.20
2019-03-30T10:49:03.324Z,89.20
2019-03-30T10:51:32.204Z,87.80
2019-03-30T10:54:00.654Z,87.90
2019-03-30T10:56:29.447Z,85.40
2019-03-30T10:58:59.552Z,87.60
2019-03-30T11:01:28.023Z,84.90
2019-03-30T11:03:56.833Z,83.00
2019-03-30T11:06:25.587Z,87.30
2019-03-30T11:08:54.400Z,80.50
2019-03-30T11:11:23.164Z,79.40
2019-03-30T11:13:51.635Z,82.80
2019-03-30T11:16:21.160Z,78.10
2019-03-30T11:18:49.941Z,78.70
2019-03-30T11:21:18.860Z,80.80
2019-03-30T11:23:47.636Z,77.50
2019-03-30T11:26:16.102Z,78.50
2019-03-30T11:28:44.637Z,78.90
2019-03-30T11:31:14.914Z,73.80
2019-03-30T11:33:43.637Z,74.90
2019-03-30T11:36:12.145Z,72.60
2019-03-30T11:38:40.644Z,70.70
2019-03-30T11:41:09.414Z,75.30
2019-03-30T11:43:37.964Z,70.90
2019-03-30T11:46:06.950Z,67.90
2019-03-30T11:48:37.385Z,70.00
2019-03-30T11:51:07.144Z,66.30
2019-03-30T11:53:37.142Z,65.40
2019-03-30T11:56:05.790Z,68.40
2019-03-30T11:58:34.249Z,62.30
2019-03-30T12:01:07.891Z,59.10
2019-03-30T12:03:36.746Z,62.70
2019-03-30T12:06:05.850Z,57.90
2019-03-30T12:08:34.802Z,59.30
2019-03-30T12:11:03.724Z,59.00
2019-03-30T12:13:32.215Z,60.40
2019-03-30T12:16:00.755Z,56.60
2019-03-30T12:18:29.229Z,56.20
2019-03-30T12:20:57.774Z,56.50
2019-03-30T12:23:26.507Z,54.60
2019-03-30T12:25:55.319Z,52.80
2019-03-30T12:28:24.140Z,54.60
2019-03-30T12:30:53.023Z,55.40
2019-03-30T12:33:22.561Z,53.90
2019-03-30T12:35:51.655Z,50.50
2019-03-30T12:38:20.108Z,56.50
2019-03-30T12:40:48.929Z,57.00
2019-03-30T12:43:17.394Z,57.20
2019-03-30T12:45:45.980Z,58.20
2019-03-30T12:48:14.706Z,61.40
2019-03-30T12:50:43.258Z,57.90
2019-03-30T12:53:12.071Z,60.20
2019-03-30T12:55:49.080Z,64.90
2019-03-30T12:58:12.477Z,61.60
2019-03-30T13:00:40.998Z,65.20
2019-03-30T13:03:09.821Z,66.90
2019-03-30T13:05:38.275Z,65.00
2019-03-30T13:08:06.739Z,64.60
2019-03-30T13:10:35.637Z,65.70
2019-03-30T13:13:04.679Z,65.50
2019-03-30T13:15:33.132Z,65.30
2019-03-30T13:18:01.631Z,67.40
2019-03-30T13:20:30.174Z,67.30
2019-03-30T13:22:58.680Z,67.70
2019-03-30T13:25:30.000Z,67.20
2019-03-30T13:27:58.868Z,66.70
2019-03-30T13:30:27.322Z,66.20
2019-03-30T13:32:55.809Z,66.20
2019-03-30T13:35:24.636Z,68.00
2019-03-30T13:37:53.256Z,67.90
2019-03-30T13:40:21.973Z,67.40
2019-03-30T13:42:50.418Z,67.70
2019-03-30T13:45:21.093Z,69.80
2019-03-30T13:47:49.641Z,65.70
2019-03-30T13:50:18.157Z,67.10
2019-03-30T13:52:46.609Z,69.80
2019-03-30T13:55:16.970Z,69.00
2019-03-30T13:57:45.496Z,68.90
2019-03-30T14:00:14.441Z,69.80
2019-03-30T14:02:44.192Z,69.20
2019-03-30T14:05:13.975Z,67.70
2019-03-30T14:07:44.163Z,66.90
2019-03-30T14:10:13.680Z,72.00
2019-03-30T14:12:42.224Z,65.10
2019-03-30T14:15:10.838Z,66.70
2019-03-30T14:17:39.302Z,69.20
2019-03-30T14:20:08.595Z,66.50
2019-03-30T14:22:37.485Z,64.20
2019-03-30T14:25:09.024Z,62.60
2019-03-30T14:27:38.962Z,64.80
2019-03-30T14:30:10.250Z,60.70
2019-03-30T14:32:42.232Z,61.20
2019-03-30T14:35:10.842Z,62.90
2019-03-30T14:37:39.294Z,61.70
2019-03-30T14:40:08.622Z,60.40
2019-03-30T14:42:37.446Z,63.30
2019-03-30T14:45:07.977Z,60.70
2019-03-30T14:47:36.805Z,60.10
2019-03-30T14:50:07.990Z,58.30
2019-03-30T14:52:37.085Z,58.20
2019-03-30T14:55:08.331Z,58.40
2019-03-30T14:57:36.792Z,56.30
2019-03-30T15:00:08.767Z,61.80
2019-03-30T15:02:37.255Z,60.70
2019-03-30T15:05:09.397Z,56.50
2019-03-30T15:07:38.140Z,60.70
2019-03-30T15:10:09.905Z,59.70
2019-03-30T15:12:40.319Z,62.50
2019-03-30T15:15:13.624Z,60.40
2019-03-30T15:17:43.365Z,60.10
2019-03-30T15:20:12.058Z,58.60
2019-03-30T15:22:40.535Z,64.20
2019-03-30T15:25:10.288Z,62.30
2019-03-30T15:27:39.012Z,58.00
2019-03-30T15:30:10.212Z,62.70
2019-03-30T15:32:39.116Z,58.70
2019-03-30T15:35:08.313Z,58.40
2019-03-30T15:37:37.184Z,59.30
2019-03-30T15:40:06.662Z,66.00
2019-03-30T15:42:39.873Z,69.30
2019-03-30T15:45:09.369Z,70.30
2019-03-30T15:47:38.271Z,65.80
2019-03-30T15:50:08.798Z,68.80
2019-03-30T15:52:37.556Z,66.80
2019-03-30T15:55:09.675Z,70.30
2019-03-30T15:57:38.405Z,67.50
2019-03-30T16:00:10.185Z,65.90
2019-03-30T16:02:40.404Z,66.00
2019-03-30T16:05:09.357Z,68.90
2019-03-30T16:07:38.181Z,70.70
2019-03-30T16:10:07.481Z,69.60
2019-03-30T16:12:35.953Z,63.00
2019-03-30T16:15:05.845Z,63.30
2019-03-30T16:17:35.139Z,63.60
2019-03-30T16:20:07.536Z,61.90
2019-03-30T16:22:36.426Z,62.40
2019-03-30T16:25:07.183Z,63.10
2019-03-30T16:27:39.020Z,70.90
2019-03-30T16:30:08.253Z,66.30
2019-03-30T16:32:36.814Z,67.40
2019-03-30T16:35:05.848Z,67.10
2019-03-30T16:37:34.410Z,68.10
2019-03-30T16:40:05.687Z,68.30
2019-03-30T16:42:34.405Z,71.20
2019-03-30T16:45:02.943Z,69.50
2019-03-30T16:47:31.481Z,67.40
2019-03-30T16:50:00.401Z,68.50
2019-03-30T16:52:30.818Z,67.50
2019-03-30T16:54:59.569Z,67.60
2019-03-30T16:57:42.151Z,68.40
2019-03-30T16:59:59.514Z,67.80
2019-03-30T17:02:28.270Z,70.50
2019-03-30T17:04:57.274Z,73.00
2019-03-30T17:07:26.086Z,70.70
2019-03-30T17:09:54.543Z,72.30
2019-03-30T17:12:23.274Z,69.90
2019-03-30T17:14:52.112Z,73.00
2019-03-30T17:17:20.566Z,75.00
2019-03-30T17:19:49.035Z,75.40
2019-03-30T17:22:17.574Z,76.30
2019-03-30T17:24:46.970Z,73.80
2019-03-30T17:27:15.498Z,73.20
2019-03-30T17:29:44.329Z,73.20
2019-03-30T17:32:12.912Z,72.00
2019-03-30T17:34:41.438Z,71.80
2019-03-30T17:37:09.998Z,73.00
2019-03-30T17:39:38.870Z,74.10
2019-03-30T17:42:07.718Z,73.90
2019-03-30T17:44:36.540Z,74.40
2019-03-30T17:47:05.063Z,76.20
2019-03-30T17:49:33.792Z,76.80
2019-03-30T17:52:03.903Z,77.40
2019-03-30T17:54:32.458Z,79.00
2019-03-30T17:57:00.925Z,77.70
2019-03-30T17:59:29.684Z,78.20
2019-03-30T18:01:58.568Z,79.00
2019-03-30T18:04:27.363Z,79.50
2019-03-30T18:06:55.989Z,80.50
2019-03-30T18:09:24.889Z,80.60
2019-03-30T18:11:53.336Z,81.50
2019-03-30T18:14:22.088Z,86.00
2019-03-30T18:16:50.550Z,86.60
2019-03-30T18:19:19.353Z,90.50
2019-03-30T18:21:50.985Z,91.60
2019-03-30T18:24:19.927Z,92.90
2019-03-30T18:26:50.883Z,94.00
2019-03-30T18:29:19.654Z,96.00
2019-03-30T18:31:48.315Z,97.40
2019-03-30T18:34:16.804Z,98.00
2019-03-30T18:36:47.032Z,99.90
2019-03-30T18:39:18.759Z,99.90
2019-03-30T18:41:47.894Z,99.90
2019-03-30T18:44:17.543Z,99.90
2019-03-30T18:46:46.481Z,99.90
2019-03-30T18:49:14.969Z,99.90
2019-03-30T18:51:49.532Z,99.90
2019-03-30T18:54:19.358Z,99.90
2019-03-30T18:56:48.162Z,99.90
2019-03-30T18:59:16.906Z,99.90
2019-03-30T19:01:45.377Z,99.90
2019-03-30T19:04:19.328Z,99.90
2019-03-30T19:06:47.779Z,99.90
2019-03-30T19:09:18.036Z,99.90
2019-03-30T19:11:52.359Z,99.90
2019-03-30T19:14:21.142Z,99.90
2019-03-30T19:16:49.936Z,99.90
2019-03-30T19:19:18.752Z,99.90
2019-03-30T19:21:47.196Z,99.90
2019-03-30T19:24:15.860Z,99.90
2019-03-30T19:26:44.441Z,99.90
2019-03-30T19:29:13.251Z,99.90
2019-03-30T19:31:41.698Z,99.90
2019-03-30T19:34:10.169Z,99.90
2019-03-30T19:36:38.940Z,99.90
2019-03-30T19:39:12.044Z,99.90
2019-03-30T19:41:40.771Z,99.90
2019-03-30T19:44:10.343Z,99.90
2019-03-30T19:46:38.809Z,99.90
2019-03-30T19:49:07.309Z,99.90
2019-03-30T19:51:36.319Z,99.90
2019-03-30T19:54:05.245Z,99.90
2019-03-30T19:56:34.028Z,99.90
2019-03-30T19:59:10.530Z,99.90
2019-03-30T20:01:32.860Z,99.90
2019-03-30T20:04:01.809Z,99.90
2019-03-30T20:06:30.470Z,99.90
2019-03-30T20:08:59.310Z,99.90
2019-03-30T20:11:29.374Z,99.90
2019-03-30T20:13:57.830Z,99.90
2019-03-30T20:16:26.688Z,99.90
2019-03-30T20:19:10.875Z,99.90
2019-03-30T20:21:25.535Z,99.90
2019-03-30T20:23:54.917Z,99.90
2019-03-30T20:26:23.766Z,99.90
2019-03-30T20:28:52.218Z,99.90
2019-03-30T20:31:21.029Z,99.90
2019-03-30T20:33:49.765Z,99.90
2019-03-30T20:36:18.219Z,99.90
2019-03-30T20:38:46.764Z,99.90
2019-03-30T20:41:15.571Z,99.90
2019-03-30T20:43:45.919Z,99.90
2019-03-30T20:46:15.787Z,99.90
2019-03-30T20:48:44.577Z,99.90
2019-03-30T20:51:13.344Z,99.90
2019-03-30T20:53:41.904Z,99.90
2019-03-30T20:56:10.658Z,99.90
2019-03-30T20:58:39.449Z,99.90
2019-03-30T21:01:08.062Z,99.90
2019-03-30T21:03:37.523Z,99.90
2019-03-30T21:06:06.531Z,99.90
2019-03-30T21:08:35.089Z,99.90
2019-03-30T21:11:03.617Z,99.90
2019-03-30T21:13:32.222Z,99.90
2019-03-30T21:16:01.054Z,99.90
2019-03-30T21:18:29.505Z,99.90
2019-03-30T21:20:57.985Z,99.90
2019-03-30T21:23:26.647Z,99.90
2019-03-30T21:25:55.573Z,99.90
2019-03-30T21:28:24.363Z,99.90
2019-03-30T21:30:52.852Z,99.90
2019-03-30T21:33:23.234Z,99.90
2019-03-30T21:35:52.060Z,99.90
2019-03-30T21:38:21.130Z,99.90
2019-03-30T21:40:49.628Z,99.90
2019-03-30T21:43:19.828Z,99.90
2019-03-30T21:45:48.532Z,99.90
2019-03-30T21:48:16.994Z,99.90
2019-03-30T21:50:45.447Z,99.90
2019-03-30T21:53:15.201Z,99.90
2019-03-30T21:55:43.653Z,99.90
2019-03-30T21:58:14.110Z,99.90
2019-03-30T22:00:43.097Z,99.90
2019-03-30T22:03:13.998Z,99.90
2019-03-30T22:05:42.452Z,99.90
2019-03-30T22:08:12.534Z,99.90
2019-03-30T22:10:42.124Z,99.90
2019-03-30T22:13:10.717Z,99.90
2019-03-30T22:15:41.025Z,99.90
2019-03-30T22:18:09.473Z,99.90
2019-03-30T22:20:37.960Z,99.90
2019-03-30T22:23:06.822Z,99.90
2019-03-30T22:25:37.989Z,99.90
2019-03-30T22:28:06.739Z,99.90
2019-03-30T22:30:35.543Z,99.90
2019-03-30T22:33:04.128Z,99.90
2019-03-30T22:35:32.722Z,99.90
2019-03-30T22:38:03.851Z,99.90
2019-03-30T22:40:33.516Z,99.90
2019-03-30T22:43:02.118Z,99.90
2019-03-30T22:45:31.983Z,99.90
2019-03-30T22:48:00.450Z,99.90
2019-03-30T22:50:29.308Z,99.90
2019-03-30T22:52:58.060Z,99.90
2019-03-30T22:55:26.958Z,99.90
2019-03-30T22:57:55.420Z,99.90
2019-03-30T23:00:38.625Z,99.90
2019-03-30T23:03:00.038Z,99.90
2019-03-30T23:05:28.791Z,99.90
2019-03-30T23:07:57.658Z,99.90
2019-03-30T23:10:26.112Z,99.90
2019-03-30T23:12:54.870Z,99.90
2019-03-30T23:15:23.340Z,99.90
2019-03-30T23:17:52.218Z,99.90
2019-03-30T23:20:20.987Z,99.90
2019-03-30T23:22:49.704Z,99.90
2019-03-30T23:25:18.471Z,99.90
2019-03-30T23:27:47.018Z,99.90
2019-03-30T23:30:17.313Z,99.90
2019-03-30T23:32:45.808Z,99.90
2019-03-30T23:35:14.390Z,99.90
2019-03-30T23:37:42.951Z,99.90
2019-03-30T23:40:11.651Z,99.90
2019-03-30T23:42:40.434Z,99.90
2019-03-30T23:45:08.980Z,99.90
2019-03-30T23:47:37.716Z,99.90
2019-03-30T23:50:07.842Z,99.90
2019-03-30T23:52:36.369Z,99.90
2019-03-30T23:55:06.294Z,99.90
2019-03-30T23:57:35.146Z,99.90
